Time;durP1;ratioP1;P1;durP2;ratioP2;P2;SDS_P1;SDS_P2;PMS_P1;PMS_P2;Temp;Humidity;BMP_temperature;BMP_pressure;BME280_temperature;BME280_humidity;BME280_pressure;Samples;Min_cycle;Max_cycle;Signal;HPM_P1;HPM_P2
2024/03/30 00:00:51;;;;;;;2.95;1.38;;;;;;;;;;5089314;28;20043;-55
2024/03/30 00:03:17;;;;;;;3.38;2.45;;;;;;;;;;5091137;28;20034;-56
2024/03/30 00:05:43;;;;;;;2.67;1.50;;;;;;;;;;5084466;28;20043;-54
2024/03/30 00:08:10;;;;;;;2.55;1.80;;;;;;;;;;5091928;28;20025;-55
2024/03/30 00:10:39;;;;;;;5.20;1.50;;;;;;;;;;5091651;28;20035;-56
2024/03/30 00:13:06;;;;;;;3.13;1.30;;;;;;;;;;5079995;28;20038;-56
2024/03/30 00:15:32;;;;;;;2.35;1.23;;;;;;;;;;5086513;28;20387;-56
2024/03/30 00:18:01;;;;;;;2.60;1.30;;;;;;;;;;5091914;28;20041;-56
2024/03/30 00:20:27;;;;;;;2.35;1.00;;;;;;;;;;5082449;28;20026;-55
2024/03/30 00:22:53;;;;;;;2.40;1.40;;;;;;;;;;5090259;28;20048;-56
2024/03/30 00:25:20;;;;;;;3.13;1.50;;;;;;;;;;5089125;28;20025;-56
2024/03/30 00:27:46;;;;;;;1.80;1.33;;;;;;;;;;5093264;28;20143;-56
2024/03/30 00:30:12;;;;;;;2.17;1.60;;;;;;;;;;5089683;28;20423;-56
2024/03/30 00:32:38;;;;;;;3.55;1.50;;;;;;;;;;5095180;28;20103;-56
2024/03/30 00:35:04;;;;;;;2.25;1.50;;;;;;;;;;5095254;28;20028;-57
2024/03/30 00:37:30;;;;;;;1.73;1.38;;;;;;;;;;5089620;28;20035;-55
2024/03/30 00:39:56;;;;;;;2.50;1.80;;;;;;;;;;5095357;28;20107;-55
2024/03/30 00:42:22;;;;;;;2.80;1.70;;;;;;;;;;5094809;28;20055;-55
2024/03/30 00:44:48;;;;;;;2.35;1.63;;;;;;;;;;5088691;28;20024;-55
2024/03/30 00:47:14;;;;;;;2.50;1.70;;;;;;;;;;5082454;28;20041;-56
2024/03/30 00:49:40;;;;;;;3.55;2.17;;;;;;;;;;5095456;28;20054;-55
2024/03/30 00:52:07;;;;;;;4.63;2.00;;;;;;;;;;5090989;28;20089;-56
2024/03/30 00:54:33;;;;;;;2.35;1.60;;;;;;;;;;5094839;28;20110;-56
2024/03/30 00:56:59;;;;;;;3.15;1.80;;;;;;;;;;5094808;28;20032;-56
2024/03/30 00:59:25;;;;;;;3.40;2.00;;;;;;;;;;5094878;28;20023;-56
2024/03/30 01:01:51;;;;;;;3.63;1.70;;;;;;;;;;5094870;28;20024;-56
2024/03/30 01:04:17;;;;;;;6.03;1.98;;;;;;;;;;5082577;28;20085;-56
2024/03/30 01:06:43;;;;;;;2.75;1.92;;;;;;;;;;5093875;28;20024;-55
2024/03/30 01:09:09;;;;;;;3.78;1.90;;;;;;;;;;5093874;28;20024;-56
2024/03/30 01:11:38;;;;;;;4.15;2.03;;;;;;;;;;5094423;28;20051;-55
2024/03/30 01:14:05;;;;;;;3.38;2.22;;;;;;;;;;5094396;28;20024;-56
2024/03/30 01:16:31;;;;;;;3.63;2.10;;;;;;;;;;5088217;28;20055;-55
2024/03/30 01:18:58;;;;;;;2.80;1.60;;;;;;;;;;5093561;28;20396;-55
2024/03/30 01:21:24;;;;;;;3.63;1.80;;;;;;;;;;5093823;28;20391;-56
2024/03/30 01:23:50;;;;;;;2.53;1.73;;;;;;;;;;5093853;28;20046;-55
2024/03/30 01:26:18;;;;;;;3.78;1.98;;;;;;;;;;5094731;28;20522;-55
2024/03/30 01:28:45;;;;;;;4.28;2.25;;;;;;;;;;5094246;28;20467;-56
2024/03/30 01:31:12;;;;;;;2.33;1.55;;;;;;;;;;5094219;28;20032;-55
2024/03/30 01:33:39;;;;;;;3.88;1.55;;;;;;;;;;5091193;28;20130;-55
2024/03/30 01:36:05;;;;;;;2.13;1.50;;;;;;;;;;5092241;28;20032;-56
2024/03/30 01:38:31;;;;;;;2.67;1.30;;;;;;;;;;5091962;28;20034;-55
2024/03/30 01:40:58;;;;;;;3.13;1.67;;;;;;;;;;5084197;28;20116;-55
2024/03/30 01:43:24;;;;;;;2.42;1.55;;;;;;;;;;5093788;28;20027;-53
2024/03/30 01:45:51;;;;;;;2.83;1.42;;;;;;;;;;5094383;28;20480;-55
2024/03/30 01:48:18;;;;;;;2.22;1.20;;;;;;;;;;5093859;28;20032;-53
2024/03/30 01:50:44;;;;;;;1.85;1.42;;;;;;;;;;5093962;28;20400;-55
2024/03/30 01:53:13;;;;;;;2.88;1.55;;;;;;;;;;5092074;28;20027;-55
2024/03/30 01:55:41;;;;;;;1.90;1.52;;;;;;;;;;5093739;28;20024;-54
2024/03/30 01:58:07;;;;;;;2.55;1.75;;;;;;;;;;5094021;28;20450;-54
2024/03/30 02:00:33;;;;;;;3.80;2.25;;;;;;;;;;5093267;28;20038;-54
2024/03/30 02:03:00;;;;;;;2.95;1.67;;;;;;;;;;5093369;28;20043;-54
2024/03/30 02:05:27;;;;;;;2.47;1.60;;;;;;;;;;5086671;28;20086;-53
2024/03/30 02:07:53;;;;;;;4.55;2.30;;;;;;;;;;5082003;28;20244;-55
2024/03/30 02:10:20;;;;;;;3.90;2.03;;;;;;;;;;5084280;28;20106;-54
2024/03/30 02:12:46;;;;;;;4.45;2.22;;;;;;;;;;5093339;28;20103;-55
2024/03/30 02:15:12;;;;;;;4.63;2.30;;;;;;;;;;5093378;28;20095;-55
2024/03/30 02:17:38;;;;;;;2.72;1.92;;;;;;;;;;5093698;28;20103;-53
2024/03/30 02:20:04;;;;;;;2.92;2.08;;;;;;;;;;5087258;28;20027;-54
2024/03/30 02:22:30;;;;;;;3.70;2.00;;;;;;;;;;5094862;28;20543;-54
2024/03/30 02:24:56;;;;;;;4.00;2.10;;;;;;;;;;5092132;28;20021;-55
2024/03/30 02:27:21;;;;;;;4.88;2.17;;;;;;;;;;5084294;28;20028;-55
2024/03/30 02:29:50;;;;;;;6.53;2.33;;;;;;;;;;5091107;28;20035;-54
2024/03/30 02:32:17;;;;;;;2.55;1.98;;;;;;;;;;5089608;28;20103;-56
2024/03/30 02:34:43;;;;;;;3.67;1.90;;;;;;;;;;5088398;28;20063;-54
2024/03/30 02:37:09;;;;;;;5.55;1.58;;;;;;;;;;5077785;28;20681;-55
2024/03/30 02:39:35;;;;;;;2.63;1.88;;;;;;;;;;5093131;28;20460;-59
2024/03/30 02:42:01;;;;;;;4.95;2.25;;;;;;;;;;5079521;28;20028;-59
2024/03/30 02:47:30;;;;;;;5.80;2.78;;;;;;;;;;5082691;28;20067;-59
2024/03/30 02:49:56;;;;;;;4.57;2.30;;;;;;;;;;5093023;28;20032;-59
2024/03/30 02:52:22;;;;;;;5.18;3.10;;;;;;;;;;5083348;28;20162;-60
2024/03/30 02:54:48;;;;;;;5.07;2.90;;;;;;;;;;5090274;28;20028;-60
2024/03/30 02:57:15;;;;;;;5.50;2.53;;;;;;;;;;5090122;28;20047;-59
2024/03/30 02:59:41;;;;;;;3.60;2.33;;;;;;;;;;5079473;28;20032;-59
2024/03/30 03:02:07;;;;;;;6.05;2.30;;;;;;;;;;5092242;28;20039;-57
2024/03/30 03:04:33;;;;;;;3.95;1.95;;;;;;;;;;5092854;28;20020;-58
2024/03/30 03:06:59;;;;;;;3.33;2.38;;;;;;;;;;5088031;28;20024;-59
2024/03/30 03:09:25;;;;;;;3.50;1.95;;;;;;;;;;5077972;28;20103;-59
2024/03/30 03:11:51;;;;;;;5.78;1.77;;;;;;;;;;5090902;28;20103;-59
2024/03/30 03:14:17;;;;;;;3.10;1.95;;;;;;;;;;5091741;28;20032;-60
2024/03/30 03:16:43;;;;;;;3.45;2.17;;;;;;;;;;5087753;28;20029;-60
2024/03/30 03:19:09;;;;;;;5.07;2.90;;;;;;;;;;5085496;28;20101;-60
2024/03/30 03:21:35;;;;;;;3.67;2.47;;;;;;;;;;5091290;28;20043;-59
2024/03/30 03:24:01;;;;;;;5.38;2.80;;;;;;;;;;5091096;28;20032;-60
2024/03/30 03:26:27;;;;;;;4.95;2.88;;;;;;;;;;5092328;28;20137;-59
2024/03/30 03:28:52;;;;;;;4.10;2.53;;;;;;;;;;5092410;28;20031;-60
2024/03/30 03:31:18;;;;;;;5.22;3.00;;;;;;;;;;5092129;28;20073;-59
2024/03/30 03:33:44;;;;;;;4.18;2.58;;;;;;;;;;5091931;28;20487;-59
2024/03/30 03:36:10;;;;;;;4.35;2.40;;;;;;;;;;5087985;28;20059;-59
2024/03/30 03:38:37;;;;;;;6.82;2.63;;;;;;;;;;5082461;28;20020;-59
2024/03/30 03:41:03;;;;;;;4.97;2.75;;;;;;;;;;5080984;28;20045;-59
2024/03/30 03:43:29;;;;;;;5.45;2.55;;;;;;;;;;5091825;28;20027;-60
2024/03/30 03:45:57;;;;;;;5.63;2.80;;;;;;;;;;5085167;28;20476;-59
2024/03/30 03:48:23;;;;;;;4.47;2.90;;;;;;;;;;5091330;28;20028;-56
2024/03/30 03:50:49;;;;;;;4.57;2.75;;;;;;;;;;5091931;28;20438;-55
2024/03/30 03:53:15;;;;;;;3.97;2.20;;;;;;;;;;5090772;28;20056;-56
2024/03/30 03:55:41;;;;;;;4.30;2.38;;;;;;;;;;5091040;28;20028;-55
2024/03/30 03:58:07;;;;;;;3.28;2.60;;;;;;;;;;5091578;28;20032;-56
2024/03/30 04:00:34;;;;;;;4.75;2.70;;;;;;;;;;5095594;28;20039;-55
2024/03/30 04:03:00;;;;;;;3.33;2.25;;;;;;;;;;5095946;28;20506;-56
2024/03/30 04:05:26;;;;;;;6.10;2.60;;;;;;;;;;5095828;28;20016;-56
2024/03/30 04:07:52;;;;;;;6.55;2.95;;;;;;;;;;5090556;28;20035;-55
2024/03/30 04:10:20;;;;;;;5.05;3.20;;;;;;;;;;5095317;28;20472;-56
2024/03/30 04:12:47;;;;;;;8.77;3.67;;;;;;;;;;5094993;28;20483;-55
2024/03/30 04:15:13;;;;;;;6.22;3.03;;;;;;;;;;5095667;28;20032;-55
2024/03/30 04:17:39;;;;;;;4.07;2.90;;;;;;;;;;5095812;28;20031;-55
2024/03/30 04:20:05;;;;;;;9.10;3.08;;;;;;;;;;5095760;28;20093;-53
2024/03/30 04:22:31;;;;;;;3.80;2.60;;;;;;;;;;5097546;28;20139;-55
2024/03/30 04:24:57;;;;;;;5.07;2.92;;;;;;;;;;5095611;28;20042;-55
2024/03/30 04:27:23;;;;;;;4.60;3.00;;;;;;;;;;5095659;28;20032;-55
2024/03/30 04:29:49;;;;;;;4.53;3.00;;;;;;;;;;5094782;28;20027;-55
2024/03/30 04:32:15;;;;;;;5.55;3.53;;;;;;;;;;5094316;28;20028;-55
2024/03/30 04:34:41;;;;;;;5.43;3.22;;;;;;;;;;5091749;28;20028;-56
2024/03/30 04:37:07;;;;;;;6.53;3.50;;;;;;;;;;5091728;28;20036;-55
2024/03/30 04:39:34;;;;;;;6.55;3.33;;;;;;;;;;5082444;28;20040;-55
2024/03/30 04:42:01;;;;;;;5.07;2.97;;;;;;;;;;5094501;28;20035;-55
2024/03/30 04:44:27;;;;;;;6.15;3.42;;;;;;;;;;5094425;28;20056;-55
2024/03/30 04:46:53;;;;;;;9.30;3.38;;;;;;;;;;5093568;28;20505;-55
2024/03/30 04:49:19;;;;;;;5.82;3.50;;;;;;;;;;5094495;28;20106;-55
2024/03/30 04:51:45;;;;;;;4.43;3.08;;;;;;;;;;5088387;28;20059;-55
2024/03/30 04:54:11;;;;;;;7.65;3.53;;;;;;;;;;5081795;28;20031;-53
2024/03/30 04:56:37;;;;;;;5.78;3.42;;;;;;;;;;5094158;28;20061;-55
2024/03/30 04:59:03;;;;;;;4.28;2.70;;;;;;;;;;5094618;28;20521;-52
2024/03/30 05:01:29;;;;;;;4.75;2.95;;;;;;;;;;5087610;28;20020;-54
2024/03/30 05:03:55;;;;;;;6.22;3.38;;;;;;;;;;5082966;28;20034;-54
2024/03/30 05:06:21;;;;;;;4.18;3.03;;;;;;;;;;5090946;28;20031;-55
2024/03/30 05:08:47;;;;;;;5.13;3.22;;;;;;;;;;5087096;28;20024;-54
2024/03/30 05:11:13;;;;;;;7.72;3.00;;;;;;;;;;5092674;28;20085;-53
2024/03/30 05:13:39;;;;;;;4.07;2.80;;;;;;;;;;5092843;28;20032;-55
2024/03/30 05:16:05;;;;;;;5.95;3.20;;;;;;;;;;5093711;28;20043;-54
2024/03/30 05:18:31;;;;;;;5.68;3.10;;;;;;;;;;5092478;28;20124;-55
2024/03/30 05:21:01;;;;;;;5.15;2.97;;;;;;;;;;5093053;28;20036;-56
2024/03/30 05:23:28;;;;;;;7.50;2.83;;;;;;;;;;5088373;28;20082;-54
2024/03/30 05:25:58;;;;;;;3.78;2.65;;;;;;;;;;5093833;28;20483;-54
2024/03/30 05:28:25;;;;;;;6.28;3.28;;;;;;;;;;5084989;28;20036;-55
2024/03/30 05:30:52;;;;;;;5.40;2.95;;;;;;;;;;5088062;28;20028;-55
2024/03/30 05:33:19;;;;;;;4.88;3.42;;;;;;;;;;5092343;28;20024;-54
2024/03/30 05:35:46;;;;;;;5.40;2.50;;;;;;;;;;5091908;28;20035;-55
2024/03/30 05:38:12;;;;;;;6.15;3.60;;;;;;;;;;5089252;28;20027;-55
2024/03/30 05:40:38;;;;;;;6.55;3.35;;;;;;;;;;5093153;28;20032;-53
2024/03/30 05:43:05;;;;;;;5.43;3.03;;;;;;;;;;5092788;28;20092;-55
2024/03/30 05:45:31;;;;;;;4.82;2.92;;;;;;;;;;5093017;28;20106;-54
2024/03/30 05:47:57;;;;;;;7.15;3.30;;;;;;;;;;5089890;28;20039;-55
2024/03/30 05:50:24;;;;;;;6.65;2.75;;;;;;;;;;5092490;28;20024;-55
2024/03/30 05:52:50;;;;;;;7.82;3.00;;;;;;;;;;5089605;28;20052;-54
2024/03/30 05:55:16;;;;;;;3.78;2.45;;;;;;;;;;5093089;28;20396;-54
2024/03/30 05:57:42;;;;;;;5.35;2.65;;;;;;;;;;5092685;28;20036;-56
2024/03/30 06:00:10;;;;;;;4.07;2.58;;;;;;;;;;5085014;28;20119;-55
2024/03/30 06:02:36;;;;;;;4.57;2.38;;;;;;;;;;5084924;28;20024;-55
2024/03/30 06:05:02;;;;;;;7.55;3.00;;;;;;;;;;5087557;28;20153;-53
2024/03/30 06:07:28;;;;;;;7.28;2.92;;;;;;;;;;5090385;28;20028;-57
2024/03/30 06:09:54;;;;;;;4.53;2.92;;;;;;;;;;5090766;28;20134;-55
2024/03/30 06:12:20;;;;;;;5.25;2.72;;;;;;;;;;5090883;28;20032;-55
2024/03/30 06:14:46;;;;;;;3.80;2.38;;;;;;;;;;5090011;28;20036;-55
2024/03/30 06:17:13;;;;;;;6.18;2.10;;;;;;;;;;5092672;28;20039;-56
2024/03/30 06:19:39;;;;;;;4.97;2.58;;;;;;;;;;5092057;28;20468;-56
2024/03/30 06:22:05;;;;;;;3.50;1.77;;;;;;;;;;5089845;28;20131;-56
2024/03/30 06:24:31;;;;;;;7.80;2.05;;;;;;;;;;5092044;28;20031;-56
2024/03/30 06:26:57;;;;;;;5.55;2.65;;;;;;;;;;5092435;28;20027;-55
2024/03/30 06:29:23;;;;;;;3.35;2.22;;;;;;;;;;5091385;28;20032;-55
2024/03/30 06:31:49;;;;;;;4.65;2.60;;;;;;;;;;5090509;28;20031;-55
2024/03/30 06:34:15;;;;;;;5.20;2.35;;;;;;;;;;5091406;28;20448;-55
2024/03/30 06:36:41;;;;;;;4.45;2.38;;;;;;;;;;5090514;28;20400;-56
2024/03/30 06:39:07;;;;;;;6.13;2.67;;;;;;;;;;5088359;28;20028;-56
2024/03/30 06:44:17;;;;;;;6.07;2.65;;;;;;;;;;5091543;28;20050;-54
2024/03/30 06:46:43;;;;;;;3.67;2.20;;;;;;;;;;5091800;28;20206;-56
2024/03/30 06:49:09;;;;;;;6.13;2.80;;;;;;;;;;5091418;28;20091;-55
2024/03/30 06:51:35;;;;;;;5.45;2.53;;;;;;;;;;5095324;28;20577;-55
2024/03/30 06:54:01;;;;;;;4.82;2.47;;;;;;;;;;5085007;28;20407;-56
2024/03/30 06:56:27;;;;;;;5.40;2.53;;;;;;;;;;5091515;28;20025;-54
2024/03/30 06:58:53;;;;;;;4.72;2.38;;;;;;;;;;5091206;28;20027;-55
2024/03/30 07:01:19;;;;;;;6.35;2.45;;;;;;;;;;5091214;28;20471;-56
2024/03/30 07:03:45;;;;;;;5.55;2.20;;;;;;;;;;5082971;28;20396;-56
2024/03/30 07:06:11;;;;;;;10.27;2.60;;;;;;;;;;5091440;28;20026;-54
2024/03/30 07:08:37;;;;;;;8.23;2.78;;;;;;;;;;5090090;28;20024;-56
2024/03/30 07:11:03;;;;;;;7.97;2.47;;;;;;;;;;5086536;28;20166;-56
2024/03/30 07:13:29;;;;;;;5.65;2.60;;;;;;;;;;5083287;28;20474;-56
2024/03/30 07:15:55;;;;;;;4.07;2.22;;;;;;;;;;5091244;28;20082;-56
2024/03/30 07:18:23;;;;;;;9.63;2.90;;;;;;;;;;5091496;28;20103;-60
2024/03/30 07:20:49;;;;;;;4.38;2.30;;;;;;;;;;5091244;28;20063;-60
2024/03/30 07:23:15;;;;;;;7.18;2.50;;;;;;;;;;5086969;28;20031;-60
2024/03/30 07:25:41;;;;;;;7.28;2.75;;;;;;;;;;5082742;28;20024;-60
2024/03/30 07:28:07;;;;;;;6.78;2.53;;;;;;;;;;5089577;28;20036;-60
2024/03/30 07:30:33;;;;;;;4.50;2.40;;;;;;;;;;5090771;28;20103;-60
2024/03/30 07:32:59;;;;;;;5.80;2.25;;;;;;;;;;5090484;28;20051;-60
2024/03/30 07:35:25;;;;;;;6.00;2.83;;;;;;;;;;5089729;28;20031;-60
2024/03/30 07:37:51;;;;;;;7.88;3.38;;;;;;;;;;5081714;28;20073;-60
2024/03/30 07:40:17;;;;;;;4.75;2.55;;;;;;;;;;5087891;28;20028;-60
2024/03/30 07:42:43;;;;;;;7.72;2.38;;;;;;;;;;5084501;28;20112;-61
2024/03/30 07:45:09;;;;;;;4.47;2.85;;;;;;;;;;5089142;28;20086;-60
2024/03/30 07:47:37;;;;;;;3.83;1.98;;;;;;;;;;5091101;28;20383;-59
2024/03/30 07:50:03;;;;;;;9.63;2.70;;;;;;;;;;5090915;28;20028;-60
2024/03/30 07:52:29;;;;;;;7.97;2.45;;;;;;;;;;5088387;28;20032;-60
2024/03/30 07:54:55;;;;;;;5.63;2.42;;;;;;;;;;5088920;28;20125;-60
2024/03/30 07:57:22;;;;;;;6.78;2.20;;;;;;;;;;5089788;28;20024;-61
2024/03/30 07:59:48;;;;;;;5.57;2.45;;;;;;;;;;5089682;28;20491;-60
2024/03/30 08:02:14;;;;;;;3.85;1.85;;;;;;;;;;5087623;28;20032;-60
2024/03/30 08:04:40;;;;;;;8.00;2.45;;;;;;;;;;5075591;28;20020;-61
2024/03/30 08:07:06;;;;;;;10.02;2.55;;;;;;;;;;5083594;28;20082;-59
2024/03/30 08:09:32;;;;;;;5.03;2.30;;;;;;;;;;5086767;28;20507;-57
2024/03/30 08:11:58;;;;;;;10.48;2.75;;;;;;;;;;5087978;28;20032;-60
2024/03/30 08:14:24;;;;;;;11.35;2.45;;;;;;;;;;5090235;28;20442;-61
2024/03/30 08:16:50;;;;;;;6.60;2.22;;;;;;;;;;5079525;28;20073;-60
2024/03/30 08:19:17;;;;;;;13.43;3.28;;;;;;;;;;5088809;28;20024;-60
2024/03/30 08:21:44;;;;;;;7.53;2.60;;;;;;;;;;5088401;28;20601;-60
2024/03/30 08:24:10;;;;;;;7.05;2.42;;;;;;;;;;5078469;28;20024;-60
2024/03/30 08:26:36;;;;;;;7.38;2.75;;;;;;;;;;5084438;28;20020;-60
2024/03/30 08:29:03;;;;;;;9.35;2.72;;;;;;;;;;5086808;28;20073;-54
2024/03/30 08:31:29;;;;;;;11.30;2.75;;;;;;;;;;5085434;28;20111;-56
2024/03/30 08:33:56;;;;;;;9.15;3.13;;;;;;;;;;5089791;28;20031;-56
2024/03/30 08:36:22;;;;;;;8.68;2.28;;;;;;;;;;5084030;28;20027;-55
2024/03/30 08:38:48;;;;;;;12.88;2.83;;;;;;;;;;5089987;28;20038;-55
2024/03/30 08:41:14;;;;;;;8.77;3.00;;;;;;;;;;5084340;28;20040;-56
2024/03/30 08:43:40;;;;;;;15.18;2.92;;;;;;;;;;5085015;28;20031;-56
2024/03/30 08:46:06;;;;;;;13.68;3.30;;;;;;;;;;5082223;28;20383;-57
2024/03/30 08:48:36;;;;;;;7.93;2.65;;;;;;;;;;5083200;28;20056;-57
2024/03/30 08:51:02;;;;;;;9.63;2.97;;;;;;;;;;5094054;28;20476;-56
2024/03/30 08:53:28;;;;;;;8.07;2.53;;;;;;;;;;5087180;28;20028;-56
2024/03/30 08:56:00;;;;;;;14.73;2.90;;;;;;;;;;5083331;28;20093;-57
2024/03/30 08:58:27;;;;;;;15.38;2.60;;;;;;;;;;5093870;28;20680;-57
2024/03/30 09:00:53;;;;;;;15.95;2.95;;;;;;;;;;5086668;28;20028;-56
2024/03/30 09:03:18;;;;;;;10.50;3.00;;;;;;;;;;5090611;28;20024;-56
2024/03/30 09:05:45;;;;;;;13.18;3.10;;;;;;;;;;5082309;28;20017;-56
2024/03/30 09:08:11;;;;;;;18.27;3.17;;;;;;;;;;5090773;28;20032;-55
2024/03/30 09:10:37;;;;;;;18.33;3.70;;;;;;;;;;5093854;28;20438;-56
2024/03/30 09:13:03;;;;;;;21.90;4.40;;;;;;;;;;5089933;28;22862;-57
2024/03/30 09:15:29;;;;;;;31.15;4.43;;;;;;;;;;5093599;28;20026;-57
2024/03/30 09:17:56;;;;;;;20.50;3.92;;;;;;;;;;5090291;28;20024;-57
2024/03/30 09:20:22;;;;;;;19.90;3.83;;;;;;;;;;5085805;28;20029;-56
2024/03/30 09:22:48;;;;;;;21.00;3.90;;;;;;;;;;5093230;28;20181;-56
2024/03/30 09:25:14;;;;;;;25.05;4.53;;;;;;;;;;5091574;28;20111;-56
2024/03/30 09:27:41;;;;;;;23.85;4.68;;;;;;;;;;5091520;28;20137;-57
2024/03/30 09:30:08;;;;;;;17.88;3.70;;;;;;;;;;5092527;28;20107;-56
2024/03/30 09:32:36;;;;;;;18.80;3.72;;;;;;;;;;5092971;28;20572;-57
2024/03/30 09:35:02;;;;;;;26.35;4.88;;;;;;;;;;5085005;28;20040;-57
2024/03/30 09:37:28;;;;;;;20.05;4.13;;;;;;;;;;5085996;28;20100;-57
2024/03/30 09:39:54;;;;;;;20.50;4.05;;;;;;;;;;5087650;28;20318;-56
2024/03/30 09:42:28;;;;;;;26.27;4.60;;;;;;;;;;5092425;28;20032;-58
2024/03/30 09:44:54;;;;;;;27.70;4.35;;;;;;;;;;5081892;28;20047;-58
2024/03/30 09:47:22;;;;;;;34.13;5.55;;;;;;;;;;5077699;28;20024;-57
2024/03/30 09:49:48;;;;;;;21.70;4.85;;;;;;;;;;5088272;28;20032;-57
2024/03/30 09:52:15;;;;;;;29.55;5.10;;;;;;;;;;5090267;28;20028;-57
2024/03/30 09:54:42;;;;;;;37.88;6.63;;;;;;;;;;5090075;28;20399;-57
2024/03/30 09:57:08;;;;;;;25.70;5.63;;;;;;;;;;5090668;28;20028;-58
2024/03/30 09:59:34;;;;;;;24.65;5.15;;;;;;;;;;5088824;28;20108;-57
2024/03/30 10:02:00;;;;;;;36.80;5.85;;;;;;;;;;5091340;28;20107;-56
2024/03/30 10:04:26;;;;;;;38.95;6.35;;;;;;;;;;5091003;28;20098;-56
2024/03/30 10:06:55;;;;;;;32.03;4.95;;;;;;;;;;5091208;28;20085;-57
2024/03/30 10:09:25;;;;;;;29.30;4.88;;;;;;;;;;5089063;28;20047;-58
2024/03/30 10:11:53;;;;;;;33.40;5.40;;;;;;;;;;5089196;28;20400;-56
2024/03/30 10:14:26;;;;;;;35.25;5.60;;;;;;;;;;5090931;28;20036;-56
2024/03/30 10:16:52;;;;;;;;;;;;;;;;;;5091575;28;20032;-54
2024/03/30 10:19:19;;;;;;;39.30;6.70;;;;;;;;;;5091013;28;19914;-57
2024/03/30 10:21:45;;;;;;;54.55;7.65;;;;;;;;;;5090361;28;20051;-57
2024/03/30 10:24:12;;;;;;;62.40;6.10;;;;;;;;;;5089392;28;20365;-57
2024/03/30 10:26:40;;;;;;;36.97;5.70;;;;;;;;;;5086608;28;20024;-59
2024/03/30 10:29:06;;;;;;;45.20;7.55;;;;;;;;;;5086735;28;20038;-60
2024/03/30 10:31:32;;;;;;;36.83;6.78;;;;;;;;;;5085403;28;20032;-59
2024/03/30 10:33:59;;;;;;;31.95;5.65;;;;;;;;;;5087287;28;20056;-58
2024/03/30 10:36:27;;;;;;;42.03;6.30;;;;;;;;;;5089945;28;20103;-56
2024/03/30 10:38:53;;;;;;;40.50;7.70;;;;;;;;;;5088479;28;20099;-57
2024/03/30 10:41:19;;;;;;;47.50;7.55;;;;;;;;;;5087127;28;20030;-56
2024/03/30 10:43:45;;;;;;;49.95;7.47;;;;;;;;;;5085116;28;20399;-58
2024/03/30 10:46:12;;;;;;;46.85;8.32;;;;;;;;;;5088214;28;20020;-57
2024/03/30 10:48:39;;;;;;;57.58;7.75;;;;;;;;;;5086861;28;20028;-56
2024/03/30 10:51:05;;;;;;;60.05;8.05;;;;;;;;;;5084758;28;20050;-57
2024/03/30 10:53:31;;;;;;;43.75;7.18;;;;;;;;;;5086923;28;20430;-57
2024/03/30 10:55:57;;;;;;;52.72;8.20;;;;;;;;;;5089569;28;20038;-58
2024/03/30 10:58:24;;;;;;;62.03;8.00;;;;;;;;;;5089896;28;20457;-57
2024/03/30 11:00:50;;;;;;;53.53;7.57;;;;;;;;;;5089638;28;20487;-57
2024/03/30 11:03:18;;;;;;;42.03;7.63;;;;;;;;;;5076606;28;20052;-58
2024/03/30 11:05:44;;;;;;;65.72;8.13;;;;;;;;;;5082324;28;20443;-57
2024/03/30 11:08:11;;;;;;;55.45;7.05;;;;;;;;;;5081122;28;20388;-58
2024/03/30 11:10:37;;;;;;;81.25;9.38;;;;;;;;;;5087074;28;20468;-57
2024/03/30 11:13:04;;;;;;;64.55;8.75;;;;;;;;;;5085146;28;20092;-58
2024/03/30 11:15:32;;;;;;;67.55;10.57;;;;;;;;;;5085704;28;20024;-58
2024/03/30 11:18:00;;;;;;;54.25;8.65;;;;;;;;;;5091052;28;20043;-57
2024/03/30 11:20:45;;;;;;;55.10;7.22;;;;;;;;;;5081491;28;20047;-58
2024/03/30 11:23:20;;;;;;;71.40;9.35;;;;;;;;;;5090187;28;20399;-59
2024/03/30 11:25:50;;;;;;;84.43;9.93;;;;;;;;;;5087431;28;20024;-58
2024/03/30 11:28:16;;;;;;;67.60;9.55;;;;;;;;;;5081439;28;20032;-59
2024/03/30 11:30:59;;;;;;;61.95;9.52;;;;;;;;;;5082783;28;20116;-57
2024/03/30 11:33:25;;;;;;;52.28;8.95;;;;;;;;;;5085777;28;20028;-57
2024/03/30 11:36:06;;;;;;;50.03;8.43;;;;;;;;;;5088881;28;20053;-57
2024/03/30 11:38:33;;;;;;;68.72;8.63;;;;;;;;;;5089558;28;20020;-58
2024/03/30 11:41:01;;;;;;;62.88;9.75;;;;;;;;;;5091002;28;20026;-58
2024/03/30 11:43:39;;;;;;;74.28;9.98;;;;;;;;;;5084908;28;20107;-58
2024/03/30 11:46:06;;;;;;;57.28;10.73;;;;;;;;;;5086460;28;20023;-58
2024/03/30 11:48:33;;;;;;;62.92;9.18;;;;;;;;;;5085252;28;20016;-57
2024/03/30 11:50:59;;;;;;;57.30;8.35;;;;;;;;;;5085155;28;20020;-58
2024/03/30 11:53:25;;;;;;;66.85;10.13;;;;;;;;;;5089402;28;20437;-58
2024/03/30 11:55:53;;;;;;;57.47;8.63;;;;;;;;;;5080846;28;20021;-59
2024/03/30 11:58:20;;;;;;;59.78;8.13;;;;;;;;;;5087152;28;20060;-58
2024/03/30 12:00:50;;;;;;;63.17;8.73;;;;;;;;;;5087664;28;20043;-58
2024/03/30 12:03:16;;;;;;;61.33;8.70;;;;;;;;;;5087543;28;20027;-57
2024/03/30 12:05:44;;;;;;;59.97;8.82;;;;;;;;;;5083504;28;20085;-58
2024/03/30 12:08:10;;;;;;;76.90;9.25;;;;;;;;;;5080514;28;20557;-58
2024/03/30 12:10:52;;;;;;;57.17;8.43;;;;;;;;;;5090990;28;20024;-57
2024/03/30 12:13:25;;;;;;;59.55;8.48;;;;;;;;;;5090065;28;20024;-58
2024/03/30 12:15:51;;;;;;;55.38;7.82;;;;;;;;;;5089016;28;20050;-57
2024/03/30 12:18:18;;;;;;;66.57;8.60;;;;;;;;;;5089093;28;20051;-58
2024/03/30 12:20:44;;;;;;;57.92;8.55;;;;;;;;;;5090257;28;20034;-57
2024/03/30 12:23:12;;;;;;;69.72;8.30;;;;;;;;;;5090512;28;20380;-57
2024/03/30 12:25:39;;;;;;;68.65;8.75;;;;;;;;;;5091358;28;20081;-56
2024/03/30 12:28:06;;;;;;;62.92;9.30;;;;;;;;;;5087765;28;20449;-57
2024/03/30 12:30:39;;;;;;;56.42;8.77;;;;;;;;;;5094288;28;20030;-57
2024/03/30 12:33:05;;;;;;;64.95;8.85;;;;;;;;;;5091950;28;20101;-57
2024/03/30 12:35:31;;;;;;;69.00;8.57;;;;;;;;;;5090776;28;20476;-57
2024/03/30 12:37:57;;;;;;;56.65;10.35;;;;;;;;;;5089121;28;20028;-58
2024/03/30 12:40:24;;;;;;;57.33;8.30;;;;;;;;;;5091862;28;20075;-58
2024/03/30 12:42:49;;;;;;;62.50;10.15;;;;;;;;;;5092936;28;20463;-57
2024/03/30 12:45:16;;;;;;;71.55;7.53;;;;;;;;;;5090997;28;20039;-57
2024/03/30 12:47:41;;;;;;;59.72;9.25;;;;;;;;;;5086919;28;20024;-59
2024/03/30 12:50:09;;;;;;;61.78;8.18;;;;;;;;;;5092135;28;20102;-58
2024/03/30 12:52:35;;;;;;;72.97;8.68;;;;;;;;;;5095445;28;20016;-59
2024/03/30 12:55:03;;;;;;;62.90;8.90;;;;;;;;;;5092263;28;20102;-58
2024/03/30 12:57:31;;;;;;;65.30;10.23;;;;;;;;;;5086475;28;20108;-57
2024/03/30 12:59:58;;;;;;;58.60;7.88;;;;;;;;;;5094351;28;20428;-57
2024/03/30 13:02:24;;;;;;;62.05;9.52;;;;;;;;;;5084209;28;20051;-58
2024/03/30 13:04:50;;;;;;;57.38;8.63;;;;;;;;;;5093670;28;20404;-58
2024/03/30 13:07:17;;;;;;;52.67;7.68;;;;;;;;;;5089987;28;20555;-57
2024/03/30 13:09:43;;;;;;;72.80;9.35;;;;;;;;;;5093965;28;20061;-57
2024/03/30 13:12:09;;;;;;;71.80;9.32;;;;;;;;;;5086268;28;20113;-56
2024/03/30 13:14:36;;;;;;;52.97;9.68;;;;;;;;;;5088789;28;20119;-57
2024/03/30 13:17:09;;;;;;;58.08;9.50;;;;;;;;;;5088085;28;20188;-57
2024/03/30 13:19:35;;;;;;;72.20;9.68;;;;;;;;;;5093414;28;20052;-58
2024/03/30 13:22:02;;;;;;;62.47;8.82;;;;;;;;;;5089091;28;20036;-58
2024/03/30 13:24:28;;;;;;;56.75;9.30;;;;;;;;;;5090551;28;20451;-57
2024/03/30 13:26:55;;;;;;;65.15;8.45;;;;;;;;;;5091838;28;20036;-57
2024/03/30 13:29:22;;;;;;;55.40;7.75;;;;;;;;;;5093240;28;20040;-57
2024/03/30 13:31:49;;;;;;;55.83;8.27;;;;;;;;;;5088907;28;20073;-58
2024/03/30 13:34:16;;;;;;;57.67;8.27;;;;;;;;;;5090731;28;20511;-57
2024/03/30 13:36:42;;;;;;;60.85;8.75;;;;;;;;;;5087606;28;20635;-57
2024/03/30 13:39:11;;;;;;;56.35;9.32;;;;;;;;;;5093282;28;20028;-57
2024/03/30 13:41:37;;;;;;;67.32;8.65;;;;;;;;;;5084269;28;20032;-57
2024/03/30 13:44:03;;;;;;;70.07;9.35;;;;;;;;;;5092706;28;20514;-57
2024/03/30 13:46:29;;;;;;;62.63;10.35;;;;;;;;;;5092839;28;20037;-57
2024/03/30 13:48:55;;;;;;;46.38;9.38;;;;;;;;;;5085713;28;20381;-57
2024/03/30 13:51:21;;;;;;;53.95;8.77;;;;;;;;;;5087527;28;20024;-57
2024/03/30 13:53:47;;;;;;;57.60;7.35;;;;;;;;;;5090883;28;20104;-57
2024/03/30 13:56:13;;;;;;;50.65;8.75;;;;;;;;;;5090620;28;20021;-57
2024/03/30 13:58:39;;;;;;;55.40;8.80;;;;;;;;;;5086596;28;20124;-57
2024/03/30 14:01:05;;;;;;;60.30;8.45;;;;;;;;;;5091090;28;20109;-57
2024/03/30 14:03:31;;;;;;;59.38;8.13;;;;;;;;;;5097166;28;20549;-58
2024/03/30 14:05:57;;;;;;;73.40;9.60;;;;;;;;;;5085151;28;20031;-57
2024/03/30 14:08:23;;;;;;;41.53;8.82;;;;;;;;;;5092284;28;20401;-56
2024/03/30 14:10:49;;;;;;;43.65;7.93;;;;;;;;;;5089289;28;20027;-57
2024/03/30 14:13:15;;;;;;;55.65;8.07;;;;;;;;;;5083226;28;20391;-57
2024/03/30 14:15:41;;;;;;;45.72;8.32;;;;;;;;;;5090864;28;20032;-57
2024/03/30 14:18:07;;;;;;;56.05;7.80;;;;;;;;;;5092694;28;20028;-61
2024/03/30 14:20:33;;;;;;;56.20;7.47;;;;;;;;;;5088011;28;20028;-63
2024/03/30 14:22:59;;;;;;;62.08;9.52;;;;;;;;;;5088390;28;20052;-60
2024/03/30 14:25:27;;;;;;;57.83;8.63;;;;;;;;;;5089607;28;20472;-60
2024/03/30 14:27:53;;;;;;;58.13;8.07;;;;;;;;;;5083908;28;20033;-61
2024/03/30 14:30:18;;;;;;;50.22;7.97;;;;;;;;;;5084764;28;20023;-60
2024/03/30 14:32:44;;;;;;;59.47;7.38;;;;;;;;;;5083151;28;20106;-60
2024/03/30 14:35:10;;;;;;;60.45;9.38;;;;;;;;;;5091167;28;20032;-61
2024/03/30 14:37:36;;;;;;;55.75;7.25;;;;;;;;;;5088790;28;20024;-60
2024/03/30 14:40:04;;;;;;;54.10;9.57;;;;;;;;;;5084228;28;20040;-60